Time;durP1;ratioP1;P1;durP2;ratioP2;P2;SDS_P1;SDS_P2;PMS_P1;PMS_P2;Temp;Humidity;BMP_temperature;BMP_pressure;BME280_temperature;BME280_humidity;BME280_pressure;Samples;Min_cycle;Max_cycle;Signal;HPM_P1;HPM_P2
2021/11/09 00:00:22;;;;;;;26.35;18.95;;;;;;;8.96;81.33;101172.55;1758826;81;20916;-72
2021/11/09 00:02:48;;;;;;;24.07;17.73;;;;;;;8.96;81.26;101172.13;1758549;81;20924;-74
2021/11/09 00:05:19;;;;;;;27.35;19.20;;;;;;;8.94;81.14;101177.88;1758626;80;21134;-73
2021/11/09 00:10:13;;;;;;;29.32;20.75;;;;;;;8.91;80.97;101174.06;1759098;81;20920;-73
2021/11/09 00:12:44;;;;;;;25.77;19.45;;;;;;;8.88;80.95;101176.83;1758666;81;20857;-72
2021/11/09 00:15:15;;;;;;;28.07;20.55;;;;;;;8.83;81.04;101175.73;1758829;80;21350;-73
2021/11/09 00:17:47;;;;;;;29.02;20.65;;;;;;;8.82;81.10;101173.17;1758666;80;21843;-73
2021/11/09 00:20:16;;;;;;;28.07;19.55;;;;;;;8.78;81.17;101168.55;1758653;80;20849;-72
2021/11/09 00:22:43;;;;;;;29.90;20.32;;;;;;;8.76;81.22;101174.30;1758543;81;21419;-73
2021/11/09 00:25:12;;;;;;;30.80;20.97;;;;;;;8.74;81.25;101172.64;1758427;81;20939;-73
2021/11/09 00:27:39;;;;;;;30.12;20.85;;;;;;;8.73;81.30;101156.58;1758509;81;21527;-73
2021/11/09 00:30:08;;;;;;;32.00;21.60;;;;;;;8.73;81.24;101151.34;1758667;81;22160;-72
2021/11/09 00:32:43;;;;;;;27.15;18.87;;;;;;;8.71;81.27;101154.89;1758504;80;21389;-73
2021/11/09 00:35:08;;;;;;;24.02;18.30;;;;;;;8.71;81.18;101157.51;1757664;81;21007;-73
2021/11/09 00:37:35;;;;;;;24.07;16.87;;;;;;;8.71;81.11;101164.48;1758942;80;20987;-75
2021/11/09 00:40:04;;;;;;;22.25;17.62;;;;;;;8.69;81.11;101165.00;1758734;81;20896;-72
2021/11/09 00:42:32;;;;;;;26.15;17.55;;;;;;;8.68;81.09;101154.17;1759102;80;21917;-72
2021/11/09 00:44:58;;;;;;;24.10;17.65;;;;;;;8.69;81.03;101150.62;1759153;81;20924;-74
2021/11/09 00:47:25;;;;;;;28.77;18.45;;;;;;;8.67;80.98;101160.30;1758664;81;21525;-74
2021/11/09 00:49:52;;;;;;;21.15;17.00;;;;;;;8.67;80.97;101164.22;1758757;80;20940;-74
2021/11/09 00:52:19;;;;;;;23.62;16.60;;;;;;;8.68;80.93;101165.93;1759032;81;20955;-71
2021/11/09 00:54:46;;;;;;;23.32;16.87;;;;;;;8.68;80.90;101171.16;1758816;81;22166;-73
2021/11/09 00:57:13;;;;;;;22.42;17.62;;;;;;;8.68;80.88;101174.62;1758850;81;20876;-72
2021/11/09 00:59:40;;;;;;;22.80;17.70;;;;;;;8.69;80.83;101178.95;1758575;81;21528;-73
2021/11/09 01:02:07;;;;;;;26.25;19.15;;;;;;;8.69;80.76;101182.87;1758775;81;20897;-73
2021/11/09 01:04:34;;;;;;;26.80;19.05;;;;;;;8.69;80.72;101180.25;1759195;80;21015;-73
2021/11/09 01:07:01;;;;;;;27.07;19.30;;;;;;;8.69;80.62;101189.84;1758743;80;21370;-73
2021/11/09 01:09:28;;;;;;;26.60;18.57;;;;;;;8.66;80.55;101189.52;1758715;81;20972;-72
2021/11/09 01:11:55;;;;;;;25.97;19.12;;;;;;;8.65;80.41;101185.69;1759061;81;20912;-73
2021/11/09 01:14:24;;;;;;;23.83;17.67;;;;;;;8.61;80.39;101178.42;1758721;80;20873;-72
2021/11/09 01:16:51;;;;;;;25.95;18.62;;;;;;;8.60;80.47;101174.55;1758505;81;20873;-73
2021/11/09 01:19:19;;;;;;;28.02;19.62;;;;;;;8.59;80.58;101178.94;1758931;80;21515;-74
2021/11/09 01:21:46;;;;;;;24.10;18.62;;;;;;;8.60;80.52;101178.01;1758822;81;20928;-73
2021/11/09 01:24:15;;;;;;;29.82;17.80;;;;;;;8.57;80.50;101175.54;1758746;81;20912;-73
2021/11/09 01:26:42;;;;;;;25.05;19.57;;;;;;;8.55;80.54;101183.06;1758735;81;20983;-73
2021/11/09 01:29:11;;;;;;;29.95;21.05;;;;;;;8.55;80.56;101192.20;1759155;81;21382;-72
2021/11/09 01:31:39;;;;;;;28.35;19.92;;;;;;;8.54;80.54;101187.88;1758842;81;22083;-72
2021/11/09 01:34:06;;;;;;;33.08;21.45;;;;;;;8.51;80.58;101190.17;1758851;81;20908;-72
2021/11/09 01:36:33;;;;;;;29.67;20.50;;;;;;;8.50;80.68;101193.25;1758951;81;20884;-73
2021/11/09 01:39:01;;;;;;;29.98;21.10;;;;;;;8.53;80.62;101199.27;1758997;81;20939;-73
2021/11/09 01:41:28;;;;;;;35.85;22.13;;;;;;;8.52;80.45;101197.11;1758715;81;20963;-72
2021/11/09 01:43:55;;;;;;;33.08;22.82;;;;;;;8.52;80.37;101194.50;1758957;81;21938;-73
2021/11/09 01:46:22;;;;;;;38.55;23.50;;;;;;;8.51;80.27;101211.08;1758857;81;20920;-73
2021/11/09 01:48:49;;;;;;;37.30;23.35;;;;;;;8.49;80.14;101205.06;1758727;81;21549;-73
2021/11/09 01:51:18;;;;;;;34.95;22.87;;;;;;;8.47;79.91;101211.69;1758976;81;20979;-73
2021/11/09 01:53:47;;;;;;;32.05;20.35;;;;;;;8.45;79.83;101215.28;1758988;81;21038;-73
2021/11/09 01:56:16;;;;;;;33.73;20.37;;;;;;;8.41;79.94;101209.78;1758643;81;21435;-74
2021/11/09 01:58:44;;;;;;;30.35;20.57;;;;;;;8.37;79.94;101205.09;1758912;81;20970;-73
2021/11/09 02:01:14;;;;;;;31.77;20.57;;;;;;;8.36;79.95;101213.86;1759052;81;20909;-72
2021/11/09 02:03:45;;;;;;;34.23;21.73;;;;;;;8.36;80.03;101206.02;1758623;81;20849;-73
2021/11/09 02:06:12;;;;;;;28.62;20.48;;;;;;;8.39;80.04;101197.20;1758968;81;21954;-73
2021/11/09 02:08:41;;;;;;;40.00;23.75;;;;;;;8.41;80.03;101201.48;1758680;81;21163;-73
2021/11/09 02:11:09;;;;;;;40.20;25.70;;;;;;;8.46;79.95;101205.20;1758605;81;20928;-73
2021/11/09 02:13:37;;;;;;;48.85;26.93;;;;;;;8.50;79.83;101206.78;1758672;80;20903;-73
2021/11/09 02:16:05;;;;;;;47.88;27.55;;;;;;;8.52;79.82;101201.50;1758575;80;20955;-73
2021/11/09 02:18:31;;;;;;;49.05;31.48;;;;;;;8.53;79.65;101204.02;1758613;81;21454;-74
2021/11/09 02:21:03;;;;;;;45.45;29.25;;;;;;;8.53;79.44;101214.48;1758779;81;21114;-73
2021/11/09 02:23:32;;;;;;;42.27;25.97;;;;;;;8.53;79.24;101217.56;1757791;81;21485;-74
2021/11/09 02:26:00;;;;;;;47.55;27.70;;;;;;;8.50;79.07;101219.39;1758711;81;20948;-73
2021/11/09 02:28:28;;;;;;;39.10;27.32;;;;;;;8.47;79.02;101209.50;1758706;80;21038;-73
2021/11/09 02:30:55;;;;;;;42.90;28.23;;;;;;;8.45;79.03;101210.89;1759016;81;21519;-73
2021/11/09 02:33:21;;;;;;;44.03;25.52;;;;;;;8.45;79.03;101216.59;1758769;81;21125;-74
2021/11/09 02:35:49;;;;;;;42.10;25.40;;;;;;;8.44;79.07;101218.33;1758672;81;20920;-73
2021/11/09 02:38:16;;;;;;;42.15;25.08;;;;;;;8.45;79.03;101217.43;1758939;81;21438;-75
2021/11/09 02:40:44;;;;;;;45.17;25.80;;;;;;;8.45;79.04;101230.50;1759071;80;20889;-73
2021/11/09 02:43:14;;;;;;;48.95;29.90;;;;;;;8.47;79.03;101227.37;1758720;81;20924;-74
2021/11/09 02:46:10;;;;;;;46.58;31.00;;;;;;;8.51;78.95;101226.77;1758978;81;21268;-73
2021/11/09 02:48:29;;;;;;;42.78;29.60;;;;;;;8.53;78.85;101220.17;1756501;81;20983;-74
2021/11/09 02:50:57;;;;;;;44.10;29.67;;;;;;;8.54;78.71;101216.63;1756827;81;20971;-73
2021/11/09 02:53:40;;;;;;;48.40;29.85;;;;;;;8.54;78.55;101220.55;1758288;81;20904;-72
2021/11/09 02:56:17;;;;;;;49.65;29.18;;;;;;;8.53;78.35;101226.25;1758767;81;20900;-72
2021/11/09 03:03:49;;;;;;;39.63;26.00;;;;;;;8.44;78.46;101215.71;1758911;81;20936;-73
2021/11/09 03:06:27;;;;;;;37.17;25.70;;;;;;;8.44;78.56;101222.25;1757754;81;21374;-73
2021/11/09 03:08:59;;;;;;;40.92;26.73;;;;;;;8.44;78.36;101212.26;1758838;80;20873;-73
2021/11/09 03:11:21;;;;;;;44.50;28.65;;;;;;;8.42;78.56;101217.54;1757819;81;21037;-73
2021/11/09 03:13:49;;;;;;;43.48;28.77;;;;;;;8.43;78.69;101222.33;1758655;81;20901;-72
2021/11/09 03:16:16;;;;;;;48.50;30.62;;;;;;;8.44;78.76;101217.02;1758806;80;20912;-73
2021/11/09 03:18:50;;;;;;;45.30;29.85;;;;;;;8.45;78.43;101214.81;1758624;80;20979;-73
2021/11/09 03:45:30;;;;;;;32.00;22.48;;;;;;;8.09;78.09;101221.03;1781255;80;20903;-73
2021/11/09 03:47:55;;;;;;;32.00;21.05;;;;;;;8.04;77.98;101217.30;1758490;81;20904;-73
2021/11/09 03:50:24;;;;;;;33.35;22.07;;;;;;;8.00;77.96;101212.27;1760748;81;21116;-74
2021/11/09 03:52:59;;;;;;;34.88;20.75;;;;;;;7.96;77.89;101214.16;1760755;81;20927;-73
2021/11/09 03:55:36;;;;;;;35.50;21.40;;;;;;;7.93;77.89;101219.95;1760211;81;21668;-75
2021/11/09 04:00:53;;;;;;;27.87;18.95;;;;;;;7.82;78.07;101226.44;1760372;81;20888;-74
2021/11/09 04:05:50;;;;;;;22.07;16.00;;;;;;;7.77;78.29;101229.69;1760434;81;20939;-73
2021/11/09 04:11:26;;;;;;;;;;;;;;;7.75;78.34;101223.67;1763187;81;21037;-72
2021/11/09 04:19:15;;;;;;;32.35;18.17;;;;;;;7.71;78.19;101233.83;1760604;81;20990;-73
2021/11/09 04:29:56;;;;;;;32.35;22.35;;;;;;;7.53;78.07;101240.59;1758488;81;21122;-72
2021/11/09 04:35:55;;;;;;;43.70;28.75;;;;;;;7.54;78.31;101234.48;1797742;79;22312;-72
2021/11/09 05:02:45;;;;;;;47.15;29.95;;;;;;;7.28;78.42;101273.73;1758289;80;21434;-73
2021/11/09 05:10:37;;;;;;;62.65;40.12;;;;;;;7.36;78.38;101283.41;1758739;80;21480;-73
2021/11/09 05:13:05;;;;;;;64.47;35.75;;;;;;;7.40;78.26;101285.88;1758207;80;20908;-72
2021/11/09 05:15:32;;;;;;;54.77;33.02;;;;;;;7.41;78.10;101291.95;1758270;81;20960;-73
2021/11/09 05:17:59;;;;;;;57.50;34.55;;;;;;;7.42;78.02;101297.09;1758115;80;21358;-72
2021/11/09 05:20:26;;;;;;;54.05;31.07;;;;;;;7.42;78.01;101299.70;1758500;81;21256;-73
2021/11/09 05:22:53;;;;;;;49.27;33.05;;;;;;;7.42;78.07;101305.38;1758220;80;20944;-72
2021/11/09 05:25:20;;;;;;;48.78;28.57;;;;;;;7.43;78.18;101297.50;1758369;80;20869;-72
2021/11/09 05:27:47;;;;;;;54.83;28.47;;;;;;;7.48;78.31;101307.78;1758299;80;20975;-73
2021/11/09 05:30:15;;;;;;;50.88;29.02;;;;;;;7.54;78.36;101314.09;1758609;80;20959;-73
2021/11/09 05:32:43;;;;;;;44.35;27.32;;;;;;;7.62;78.27;101313.33;1758404;81;21133;-75
2021/11/09 05:35:10;;;;;;;49.13;30.52;;;;;;;7.67;78.20;101314.03;1747980;80;20981;-73
2021/11/09 05:37:45;;;;;;;52.15;32.75;;;;;;;7.74;78.08;101314.66;1745078;82;20937;-74
2021/11/09 05:40:08;;;;;;;55.58;32.88;;;;;;;7.81;77.83;101320.51;1744464;80;20908;-72
2021/11/09 05:42:36;;;;;;;45.40;27.85;;;;;;;7.84;77.70;101308.63;1745122;81;20960;-73
2021/11/09 05:45:04;;;;;;;39.98;26.02;;;;;;;7.86;77.59;101309.43;1745422;82;21489;-73
2021/11/09 05:47:33;;;;;;;42.60;26.65;;;;;;;7.89;77.37;101313.22;1744579;81;20893;-74
2021/11/09 05:50:00;;;;;;;44.08;25.20;;;;;;;7.92;77.45;101325.34;1744817;82;21426;-74
2021/11/09 05:52:27;;;;;;;44.93;25.43;;;;;;;7.95;77.33;101331.28;1744606;82;20909;-73
2021/11/09 05:54:53;;;;;;;52.95;26.60;;;;;;;7.99;77.36;101326.80;1744904;81;20933;-72
2021/11/09 05:57:20;;;;;;;46.10;23.60;;;;;;;8.04;77.34;101320.48;1744591;81;21133;-73
2021/11/09 05:59:48;;;;;;;43.87;25.57;;;;;;;8.10;77.22;101323.32;1744500;82;21425;-73
2021/11/09 06:02:15;;;;;;;49.50;25.92;;;;;;;8.14;77.08;101325.34;1744625;81;20888;-72
2021/11/09 06:04:42;;;;;;;43.98;28.52;;;;;;;8.19;76.76;101327.34;1745028;81;20925;-73
2021/11/09 06:07:09;;;;;;;47.00;29.42;;;;;;;8.22;76.69;101331.98;1744745;81;20925;-73
2021/11/09 06:09:37;;;;;;;46.10;24.72;;;;;;;8.27;76.62;101335.28;1744870;81;20992;-72
2021/11/09 06:12:06;;;;;;;38.78;25.72;;;;;;;8.32;76.35;101339.02;1744553;81;20928;-72
2021/11/09 06:14:35;;;;;;;44.30;23.15;;;;;;;8.36;76.12;101347.58;1744697;80;21011;-73
2021/11/09 06:17:02;;;;;;;37.78;22.07;;;;;;;8.36;76.14;101335.81;1744954;81;21004;-73
2021/11/09 06:19:29;;;;;;;35.98;19.92;;;;;;;8.38;76.12;101344.02;1744769;81;20892;-73
2021/11/09 06:21:56;;;;;;;28.70;18.62;;;;;;;8.43;76.07;101337.34;1744700;81;21156;-72
2021/11/09 06:24:23;;;;;;;36.65;20.23;;;;;;;8.48;75.86;101343.22;1744806;81;20929;-74
2021/11/09 06:26:50;;;;;;;32.30;22.48;;;;;;;8.48;75.90;101341.45;1744543;81;20857;-73
2021/11/09 06:29:17;;;;;;;29.92;20.35;;;;;;;8.55;76.03;101339.91;1744757;80;20992;-75
2021/11/09 06:31:45;;;;;;;29.98;19.85;;;;;;;8.63;75.83;101341.30;1692034;82;20950;-74
2021/11/09 06:34:12;;;;;;;21.50;14.98;;;;;;;8.70;75.51;101344.52;1744690;81;21053;-73
2021/11/09 06:36:39;;;;;;;23.02;15.05;;;;;;;8.73;74.97;101333.92;1744498;80;21671;-73
2021/11/09 06:39:07;;;;;;;22.25;12.30;;;;;;;8.74;74.81;101339.56;1744511;80;20932;-72
2021/11/09 06:41:34;;;;;;;17.95;13.22;;;;;;;8.75;74.65;101340.41;1744495;81;21011;-74
2021/11/09 06:44:01;;;;;;;15.80;11.33;;;;;;;8.75;74.59;101334.72;1744936;81;20885;-75
2021/11/09 06:46:28;;;;;;;16.62;11.15;;;;;;;8.75;74.59;101325.56;1744607;81;21517;-72
2021/11/09 06:48:55;;;;;;;14.87;10.18;;;;;;;8.80;74.67;101332.75;1744641;82;21501;-72
2021/11/09 06:51:22;;;;;;;15.60;10.95;;;;;;;8.89;74.57;101332.40;1744630;82;20897;-73
2021/11/09 06:53:49;;;;;;;15.15;10.80;;;;;;;8.99;74.48;101336.78;1744751;81;20940;-72
2021/11/09 06:56:16;;;;;;;18.27;9.40;;;;;;;9.12;74.07;101337.12;1744653;82;20897;-73
2021/11/09 06:58:45;;;;;;;13.70;9.23;;;;;;;9.22;73.78;101334.95;1744860;82;21981;-73
2021/11/09 07:01:12;;;;;;;15.58;11.05;;;;;;;9.26;73.50;101337.84;1744529;82;20920;-73
2021/11/09 07:03:39;;;;;;;15.68;9.75;;;;;;;9.30;73.30;101344.64;1744871;82;21103;-75
2021/11/09 07:06:07;;;;;;;12.82;8.75;;;;;;;9.31;73.21;101357.64;1744431;81;21426;-72
2021/11/09 07:08:34;;;;;;;10.45;7.92;;;;;;;9.28;73.04;101356.95;1744774;81;21556;-72
2021/11/09 07:11:03;;;;;;;8.93;6.78;;;;;;;9.23;72.93;101359.76;1744555;81;21120;-73
2021/11/09 07:13:31;;;;;;;10.90;7.20;;;;;;;9.20;73.14;101359.87;1744487;81;20905;-73
2021/11/09 07:15:59;;;;;;;8.70;6.58;;;;;;;9.20;73.21;101361.17;1744611;80;20885;-72
2021/11/09 07:18:28;;;;;;;11.15;6.42;;;;;;;9.23;73.12;101366.77;1744491;81;20964;-73
2021/11/09 07:20:55;;;;;;;10.85;7.12;;;;;;;9.17;72.81;101360.48;1744595;81;20972;-72
2021/11/09 07:23:22;;;;;;;10.50;6.95;;;;;;;9.16;73.02;101362.25;1744817;81;21109;-73
2021/11/09 07:25:50;;;;;;;14.50;7.30;;;;;;;9.18;72.83;101355.63;1744490;81;21418;-71
2021/11/09 07:28:17;;;;;;;11.00;6.97;;;;;;;9.22;73.18;101360.66;1744589;80;20925;-72
2021/11/09 07:30:47;;;;;;;8.60;6.22;;;;;;;9.26;73.24;101368.78;1744451;81;20956;-74
2021/11/09 07:33:13;;;;;;;7.97;6.42;;;;;;;9.30;72.97;101365.58;1744723;80;20897;-73
2021/11/09 07:35:41;;;;;;;8.95;6.92;;;;;;;9.37;72.97;101370.09;1746233;80;21153;-74
2021/11/09 07:38:08;;;;;;;10.23;5.87;;;;;;;9.41;72.80;101380.37;1757809;80;20893;-72
2021/11/09 07:40:35;;;;;;;8.25;5.22;;;;;;;9.44;72.29;101385.46;1758106;81;20889;-73
2021/11/09 07:43:02;;;;;;;11.20;6.05;;;;;;;9.47;72.21;101391.02;1757840;81;21376;-73
2021/11/09 07:45:31;;;;;;;7.17;5.70;;;;;;;9.48;72.51;101399.28;1757846;81;20912;-73
2021/11/09 07:47:58;;;;;;;7.30;5.55;;;;;;;9.55;72.44;101403.33;1757915;81;21559;-73
2021/11/09 07:50:25;;;;;;;9.23;5.37;;;;;;;9.59;72.26;101407.99;1757785;81;20921;-73
2021/11/09 07:52:57;;;;;;;9.30;6.12;;;;;;;9.61;71.95;101400.45;1757986;81;20963;-72
2021/11/09 07:55:22;;;;;;;9.23;5.37;;;;;;;9.66;71.91;101392.40;1757544;81;20857;-75
2021/11/09 07:57:54;;;;;;;8.73;6.03;;;;;;;9.72;72.12;101392.98;1758124;80;21354;-73
2021/11/09 08:00:32;;;;;;;13.80;6.33;;;;;;;9.84;72.15;101399.90;1757546;81;21154;-75
2021/11/09 08:03:02;;;;;;;8.25;6.00;;;;;;;9.95;71.85;101393.25;1757231;81;21108;-74
2021/11/09 08:05:36;;;;;;;7.17;5.65;;;;;;;10.08;71.26;101396.64;1756954;81;20928;-75
2021/11/09 08:08:07;;;;;;;8.93;5.70;;;;;;;10.19;70.91;101399.63;1756367;81;20987;-76
2021/11/09 08:10:28;;;;;;;6.67;5.17;;;;;;;10.27;70.53;101401.88;1756193;81;20955;-76
2021/11/09 08:12:56;;;;;;;5.67;4.80;;;;;;;10.31;69.46;101392.98;1756716;81;21022;-76
2021/11/09 08:15:22;;;;;;;5.17;4.65;;;;;;;10.33;68.96;101393.77;1756299;80;20952;-77
2021/11/09 08:17:51;;;;;;;4.55;3.95;;;;;;;10.42;68.63;101397.73;1757719;81;20928;-77
2021/11/09 08:20:18;;;;;;;5.28;4.25;;;;;;;10.49;68.13;101390.84;1758342;81;21425;-75
2021/11/09 08:22:45;;;;;;;6.97;4.78;;;;;;;10.51;68.12;101390.28;1758028;81;20928;-77
2021/11/09 08:25:13;;;;;;;5.15;4.37;;;;;;;10.55;68.17;101402.80;1741345;81;21515;-77
2021/11/09 08:27:41;;;;;;;4.65;4.03;;;;;;;10.56;67.63;101409.72;1741172;80;20900;-77
2021/11/09 08:30:09;;;;;;;5.10;4.05;;;;;;;10.53;66.65;101409.41;1757871;80;20904;-76
2021/11/09 08:32:37;;;;;;;7.42;5.40;;;;;;;10.51;66.63;101406.48;1758059;80;21517;-76
2021/11/09 08:35:06;;;;;;;9.28;4.40;;;;;;;10.54;66.48;101403.27;1758199;80;20873;-77
2021/11/09 08:37:33;;;;;;;5.55;4.40;;;;;;;10.56;66.11;101404.05;1757702;81;21129;-76
2021/11/09 08:40:03;;;;;;;4.95;3.95;;;;;;;10.60;65.83;101404.73;1758040;81;20908;-76
2021/11/09 08:42:33;;;;;;;4.47;3.40;;;;;;;10.66;65.22;101406.23;1757848;81;20971;-76
2021/11/09 08:45:08;;;;;;;4.83;3.00;;;;;;;10.69;65.35;101413.94;1757960;81;20944;-75
2021/11/09 08:47:33;;;;;;;8.33;3.83;;;;;;;10.74;65.43;101415.43;1757210;81;20874;-77
2021/11/09 08:49:58;;;;;;;6.65;4.30;;;;;;;10.82;64.66;101406.34;1757792;81;21161;-75
2021/11/09 08:52:30;;;;;;;5.78;3.50;;;;;;;10.87;64.33;101394.70;1757839;81;20920;-77
2021/11/09 09:05:48;;;;;;;6.42;3.15;;;;;;;10.97;63.11;101401.66;1757354;81;21450;-77
2021/11/09 09:08:16;;;;;;;4.08;3.45;;;;;;;10.95;64.11;101406.97;1757352;80;20932;-79
2021/11/09 09:10:42;;;;;;;8.88;3.00;;;;;;;10.97;63.48;101403.80;1757567;81;21494;-75
2021/11/09 09:13:10;;;;;;;5.00;3.27;;;;;;;11.03;63.57;101393.48;1757417;81;20880;-74
2021/11/09 09:15:39;;;;;;;3.80;3.25;;;;;;;11.10;63.60;101384.38;1757669;80;20932;-76
2021/11/09 09:18:08;;;;;;;5.85;3.10;;;;;;;11.19;62.73;101390.94;1757638;81;20979;-76
2021/11/09 09:20:48;;;;;;;3.37;3.17;;;;;;;11.22;62.00;101399.97;1758144;81;20865;-75
2021/11/09 09:23:17;;;;;;;2.30;2.10;;;;;;;11.20;60.88;101400.06;1756855;80;20940;-76
2021/11/09 09:26:03;;;;;;;3.20;2.10;;;;;;;11.14;60.44;101395.11;1757615;80;20921;-76
2021/11/09 09:28:39;;;;;;;3.35;3.05;;;;;;;11.16;60.65;101408.14;1756612;81;21743;-76
2021/11/09 09:33:42;;;;;;;2.98;2.77;;;;;;;11.24;60.12;101415.18;1757704;81;20833;-75
2021/11/09 09:57:42;;;;;;;2.50;2.30;;;;;;;11.41;58.96;101420.44;1757966;81;20924;-75
2021/11/09 10:00:10;;;;;;;2.27;2.08;;;;;;;11.36;58.51;101416.33;1757855;81;21442;-75
2021/11/09 10:02:51;;;;;;;3.08;2.02;;;;;;;11.33;58.71;101421.75;1758016;81;20916;-75
2021/11/09 10:05:18;;;;;;;2.55;2.35;;;;;;;11.32;58.66;101429.25;1757772;80;20900;-76
2021/11/09 10:07:54;;;;;;;2.12;1.92;;;;;;;11.30;59.30;101419.29;1758093;80;21091;-85
2021/11/09 10:10:29;;;;;;;2.58;2.37;;;;;;;11.28;59.46;101412.80;1758049;81;20912;-78
2021/11/09 10:13:11;;;;;;;1.75;1.65;;;;;;;11.28;59.16;101415.42;1757578;81;21096;-73
2021/11/09 10:15:47;;;;;;;1.60;1.50;;;;;;;11.33;57.93;101403.37;1757695;81;20909;-74
2021/11/09 10:18:16;;;;;;;2.08;1.40;;;;;;;11.39;56.90;101416.20;1758222;81;20878;-74
2021/11/09 10:20:48;;;;;;;1.30;1.20;;;;;;;11.36;57.09;101413.70;1757652;81;21210;-73
2021/11/09 10:23:27;;;;;;;3.42;1.20;;;;;;;11.27;56.27;101424.23;1757555;81;20948;-74
2021/11/09 10:25:59;;;;;;;1.52;1.40;;;;;;;11.15;55.62;101419.11;1757678;81;20888;-73
2021/11/09 10:28:26;;;;;;;3.92;1.60;;;;;;;11.04;55.52;101418.80;1757726;81;20900;-75
2021/11/09 10:30:58;;;;;;;1.40;1.22;;;;;;;10.96;55.96;101416.99;1757841;81;20884;-73
2021/11/09 10:33:27;;;;;;;1.87;1.15;;;;;;;10.88;55.98;101417.85;1757573;80;21549;-75
2021/11/09 10:35:55;;;;;;;2.52;1.42;;;;;;;10.81;55.93;101417.77;1757652;81;20924;-76
2021/11/09 10:38:31;;;;;;;1.25;1.15;;;;;;;10.77;56.19;101413.11;1746925;80;21386;-74
2021/11/09 10:41:01;;;;;;;3.65;1.35;;;;;;;10.71;55.34;101415.56;1744536;81;20944;-74
2021/11/09 10:43:29;;;;;;;1.22;1.12;;;;;;;10.67;56.74;101424.52;1744790;81;20960;-73
2021/11/09 10:45:59;;;;;;;1.65;1.40;;;;;;;10.74;56.92;101426.39;1744191;81;20965;-74
2021/11/09 10:48:28;;;;;;;4.72;1.60;;;;;;;10.91;56.30;101425.09;1744335;81;20936;-74
2021/11/09 10:50:57;;;;;;;1.90;1.37;;;;;;;11.08;56.05;101412.47;1744165;81;20964;-73
2021/11/09 10:53:41;;;;;;;1.98;1.35;;;;;;;11.32;55.45;101416.13;1744299;81;20948;-74
2021/11/09 10:58:59;;;;;;;2.37;1.92;;;;;;;11.70;53.58;101408.91;1744582;81;21552;-73
2021/11/09 11:06:19;;;;;;;1.30;1.20;;;;;;;11.46;53.76;101418.89;1745039;81;20865;-74
2021/11/09 11:08:58;;;;;;;2.92;1.20;;;;;;;11.33;54.13;101421.75;1744669;81;20908;-73
2021/11/09 11:11:31;;;;;;;1.90;1.57;;;;;;;11.23;53.80;101430.56;1744775;81;21129;-75
2021/11/09 11:14:10;;;;;;;1.33;1.03;;;;;;;11.11;54.14;101432.47;1744923;81;20969;-75
2021/11/09 11:16:49;;;;;;;0.75;0.75;;;;;;;11.01;53.83;101437.33;1744887;81;21753;-75
2021/11/09 11:19:18;;;;;;;0.93;0.72;;;;;;;10.84;54.16;101436.81;1744469;81;20980;-76
2021/11/09 11:21:47;;;;;;;2.42;1.15;;;;;;;10.70;52.64;101446.66;1744797;82;21011;-75
2021/11/09 11:24:14;;;;;;;1.57;0.60;;;;;;;10.54;52.70;101449.63;1744323;81;21122;-75
2021/11/09 11:26:43;;;;;;;1.22;0.78;;;;;;;10.39;52.46;101456.42;1744283;81;20858;-75
2021/11/09 11:29:12;;;;;;;1.15;0.62;;;;;;;10.30;52.96;101457.69;1744626;81;20905;-75
2021/11/09 11:31:39;;;;;;;1.10;0.80;;;;;;;10.21;52.41;101462.47;1744193;81;20924;-75
2021/11/09 11:34:06;;;;;;;1.55;1.00;;;;;;;10.15;52.73;101473.60;1744065;82;20968;-75
2021/11/09 11:36:35;;;;;;;1.07;0.50;;;;;;;10.09;52.19;101476.95;1744244;81;21661;-76
2021/11/09 11:39:07;;;;;;;0.53;0.40;;;;;;;10.03;50.98;101468.08;1744457;81;20909;-75
2021/11/09 11:41:37;;;;;;;0.40;0.35;;;;;;;9.94;50.81;101473.26;1744839;82;20929;-75
2021/11/09 11:44:06;;;;;;;0.60;0.60;;;;;;;9.83;50.01;101468.48;1744701;81;20929;-77
2021/11/09 11:46:39;;;;;;;1.77;0.20;;;;;;;9.74;49.98;101472.34;1744379;81;20930;-80
2021/11/09 11:49:12;;;;;;;0.72;0.30;;;;;;;9.70;49.67;101480.40;1744574;81;21134;-77
2021/11/09 11:51:46;;;;;;;0.82;0.30;;;;;;;9.64;49.58;101471.48;1744283;81;20956;-76
2021/11/09 11:54:16;;;;;;;0.78;0.40;;;;;;;9.60;49.62;101483.84;1743899;81;20857;-75
2021/11/09 11:56:52;;;;;;;2.45;0.30;;;;;;;9.59;49.70;101478.23;1744503;80;20913;-77
2021/11/09 11:59:30;;;;;;;1.90;0.30;;;;;;;9.57;49.39;101478.75;1744672;80;21459;-79
2021/11/09 12:02:00;;;;;;;0.20;0.20;;;;;;;9.59;49.73;101478.69;1745811;81;21044;-85
2021/11/09 12:04:43;;;;;;;0.55;0.40;;;;;;;9.55;49.12;101488.44;1745289;81;20988;-86
2021/11/09 12:07:14;;;;;;;3.15;0.50;;;;;;;9.54;49.18;101489.36;1724178;81;20889;-77
2021/11/09 12:09:47;;;;;;;0.62;0.62;;;;;;;9.51;49.73;101493.40;1744143;81;21366;-77
2021/11/09 12:12:27;;;;;;;0.70;0.37;;;;;;;9.48;50.17;101493.07;1744761;81;20960;-77
2021/11/09 12:15:00;;;;;;;0.50;0.35;;;;;;;9.45;50.89;101506.30;1744128;81;20956;-76
2021/11/09 12:17:42;;;;;;;0.50;0.50;;;;;;;9.46;50.94;101512.38;1744269;81;21473;-75
2021/11/09 12:20:13;;;;;;;0.42;0.30;;;;;;;9.46;51.78;101511.08;1744050;82;20897;-75
2021/11/09 12:22:45;;;;;;;1.65;0.20;;;;;;;9.45;49.85;101519.83;1744289;81;20905;-77
2021/11/09 12:25:24;;;;;;;0.88;0.37;;;;;;;9.36;49.28;101520.20;1744575;81;21029;-77
2021/11/09 12:27:57;;;;;;;0.45;0.20;;;;;;;9.20;49.52;101518.20;1738836;81;21149;-76
2021/11/09 12:30:48;;;;;;;0.28;0.28;;;;;;;9.09;49.69;101515.16;1744673;80;20858;-76
2021/11/09 12:33:22;;;;;;;1.98;0.35;;;;;;;9.01;49.82;101519.39;1744102;81;20972;-76
2021/11/09 12:36:06;;;;;;;0.40;0.30;;;;;;;8.90;49.98;101518.50;1744687;81;20964;-75
2021/11/09 12:38:45;;;;;;;1.35;0.40;;;;;;;8.81;50.38;101516.24;1744162;80;20976;-75
2021/11/09 12:41:16;;;;;;;0.80;0.30;;;;;;;8.70;51.05;101527.10;1744679;80;21169;-74
2021/11/09 12:43:53;;;;;;;0.60;0.30;;;;;;;8.60;51.90;101528.34;1744780;81;21878;-75
2021/11/09 12:46:35;;;;;;;0.70;0.53;;;;;;;8.55;52.31;101534.67;1744606;81;20968;-74
2021/11/09 12:49:24;;;;;;;1.60;0.70;;;;;;;8.53;52.80;101545.63;1744497;81;20948;-75
2021/11/09 12:51:54;;;;;;;3.12;0.60;;;;;;;8.52;52.72;101535.64;1744308;81;20978;-75
2021/11/09 12:54:27;;;;;;;1.77;0.65;;;;;;;8.50;52.85;101533.53;1744904;80;21114;-75
2021/11/09 12:57:00;;;;;;;2.33;0.50;;;;;;;8.46;53.01;101532.78;1744447;81;20921;-74
2021/11/09 12:59:49;;;;;;;1.10;0.68;;;;;;;8.43;53.23;101532.05;1745221;81;20873;-76
2021/11/09 13:02:28;;;;;;;0.90;0.60;;;;;;;8.39;53.71;101538.27;1744219;81;21057;-74
2021/11/09 13:05:09;;;;;;;1.27;0.30;;;;;;;8.33;53.98;101533.25;1744890;81;21509;-76
2021/11/09 13:07:39;;;;;;;0.93;0.68;;;;;;;8.28;54.13;101541.27;1743663;81;21166;-76
2021/11/09 13:10:12;;;;;;;1.30;0.70;;;;;;;8.23;54.41;101534.05;1744662;81;20956;-76
2021/11/09 13:12:38;;;;;;;0.98;0.70;;;;;;;8.19;54.74;101529.83;1744558;81;20912;-76
2021/11/09 13:15:08;;;;;;;2.22;1.00;;;;;;;8.15;54.87;101530.38;1744854;81;20905;-76
2021/11/09 13:17:48;;;;;;;1.32;0.80;;;;;;;8.12;54.96;101539.64;1744746;81;20893;-76
2021/11/09 13:23:11;;;;;;;1.37;1.12;;;;;;;8.04;55.17;101554.27;1744718;81;20893;-76
2021/11/09 13:25:48;;;;;;;1.07;0.80;;;;;;;7.99;55.66;101564.48;1744899;81;20968;-75
2021/11/09 13:28:19;;;;;;;4.62;1.25;;;;;;;7.93;55.71;101568.14;1744523;81;20940;-74
2021/11/09 13:31:01;;;;;;;1.22;0.65;;;;;;;7.84;55.65;101554.09;1744824;81;20983;-78
2021/11/09 13:33:29;;;;;;;1.77;1.32;;;;;;;7.78;54.05;101564.73;1744587;81;21148;-74
2021/11/09 13:35:56;;;;;;;2.67;0.50;;;;;;;7.60;53.43;101585.77;1744782;81;20964;-74
2021/11/09 13:38:31;;;;;;;1.40;0.80;;;;;;;7.44;53.48;101582.80;1750220;80;20896;-76
2021/11/09 13:40:59;;;;;;;;;;;;;;;7.30;53.75;101598.89;1760557;81;20943;-76
2021/11/09 13:43:29;;;;;;;2.17;1.37;;;;;;;7.20;54.20;101603.54;1758006;81;20100;-75
2021/11/09 13:46:06;;;;;;;1.60;1.02;;;;;;;7.11;54.48;101599.03;1758139;80;21128;-76
2021/11/09 13:48:34;;;;;;;3.33;1.30;;;;;;;7.03;54.56;101610.55;1757992;81;20916;-76